Aroma, Indiana
Current Conditions -  °F | °C
As of 2:15 PM on Friday 24 Oct 2014 (Local Time) from KTYQ Reporting Station
Scattered Clouds Scattered Clouds  
Wind Chill: 17°   Ceiling: Unl
Heat Index: 17°   Visibility: 10mi
Dew Point:   Wind: 6mph
Humidity: 59%   Direction: 210°SSW
Pressure: 30.07"   Gusts: NA
Location:  40.1832°N, 85.9359°W
Report Text: KTYQ 241815Z AUTO 21005KT 10SM SCT023 17/09 A3007 RMK AO2 T01710089
Loading
Personal Weather Stations






























Interactive Weather Map
Tropical Storm Tracking
New forecast layout! Learn more

10-Day Weather Forecast

Advertisements
Track Severe Weather on mobile